Time;durP1;ratioP1;P1;durP2;ratioP2;P2;SDS_P1;SDS_P2;PMS_P1;PMS_P2;Temp;Humidity;BMP_temperature;BMP_pressure;BME280_temperature;BME280_humidity;BME280_pressure;Samples;Min_cycle;Max_cycle;Signal;HPM_P1;HPM_P2
2022/01/16 00:00:20;;;;;;;63.58;35.80;;;5.00;99.90;;;;;;5144680;27;20189;-70
2022/01/16 00:05:32;;;;;;;54.72;35.33;;;5.10;99.90;;;;;;5137673;27;20196;-69
2022/01/16 00:07:59;;;;;;;61.90;34.28;;;5.00;99.90;;;;;;5142820;27;20216;-69
2022/01/16 00:10:27;;;;;;;50.60;33.17;;;5.10;99.90;;;;;;5140986;27;20261;-69
2022/01/16 00:12:59;;;;;;;56.03;35.95;;;5.00;99.90;;;;;;5143191;27;20196;-70
2022/01/16 00:15:26;;;;;;;61.72;37.97;;;5.00;99.90;;;;;;5143608;27;20216;-69
2022/01/16 00:17:55;;;;;;;56.88;33.97;;;5.00;99.90;;;;;;5141510;27;20261;-70
2022/01/16 00:20:27;;;;;;;60.67;37.92;;;4.90;99.90;;;;;;5136605;27;20185;-70
2022/01/16 00:22:54;;;;;;;51.08;30.35;;;5.00;99.90;;;;;;5145658;27;20384;-70
2022/01/16 00:25:21;;;;;;;51.55;31.92;;;5.00;99.90;;;;;;5137661;27;20357;-70
2022/01/16 00:27:50;;;;;;;48.38;27.98;;;5.00;99.90;;;;;;5144000;27;20207;-69
2022/01/16 00:30:18;;;;;;;40.65;23.60;;;4.90;99.90;;;;;;5143371;27;20237;-69
2022/01/16 00:32:46;;;;;;;57.90;26.88;;;4.80;99.90;;;;;;5140928;27;20239;-69
2022/01/16 00:35:14;;;;;;;41.88;26.25;;;4.70;99.90;;;;;;5141902;27;20384;-70
2022/01/16 00:37:41;;;;;;;45.10;26.48;;;4.70;99.90;;;;;;5141240;27;20188;-70
2022/01/16 00:40:11;;;;;;;45.75;28.00;;;4.70;99.90;;;;;;5141999;27;20177;-70
2022/01/16 00:42:38;;;;;;;46.72;27.35;;;4.80;99.90;;;;;;5143293;27;20201;-70
2022/01/16 00:45:07;;;;;;;42.13;26.10;;;4.90;99.90;;;;;;5145537;27;20303;-70
2022/01/16 00:47:34;;;;;;;46.95;24.27;;;4.80;99.90;;;;;;5150464;27;20209;-69
2022/01/16 00:50:02;;;;;;;43.60;25.23;;;4.80;99.90;;;;;;5146757;27;20209;-70
2022/01/16 00:52:29;;;;;;;39.33;25.25;;;4.80;99.90;;;;;;5147021;27;20276;-69
2022/01/16 00:55:02;;;;;;;45.45;26.65;;;4.80;99.90;;;;;;5144595;27;20219;-70
2022/01/16 00:57:29;;;;;;;40.35;24.75;;;4.80;99.90;;;;;;5141115;27;20202;-70
2022/01/16 00:59:56;;;;;;;44.05;24.20;;;4.90;99.90;;;;;;5143362;27;20196;-70
2022/01/16 01:02:25;;;;;;;49.00;27.20;;;4.80;99.90;;;;;;5137081;27;20208;-70
2022/01/16 01:04:52;;;;;;;42.00;23.23;;;4.70;99.90;;;;;;5142000;27;20306;-70
2022/01/16 01:07:19;;;;;;;39.67;24.55;;;4.80;99.90;;;;;;5135244;27;20205;-70
2022/01/16 01:09:46;;;;;;;40.67;23.77;;;4.70;99.90;;;;;;5137409;27;20185;-69
2022/01/16 01:12:25;;;;;;;50.70;26.17;;;4.80;99.90;;;;;;5141114;27;20397;-70
2022/01/16 01:15:05;;;;;;;43.30;25.65;;;4.70;99.90;;;;;;5133905;27;20189;-70
2022/01/16 01:17:42;;;;;;;39.67;25.50;;;4.70;99.90;;;;;;5139261;27;20193;-70
2022/01/16 01:20:11;;;;;;;38.78;25.27;;;4.70;99.90;;;;;;5140051;27;20223;-70
2022/01/16 01:22:38;;;;;;;43.22;25.38;;;4.70;99.90;;;;;;5147356;27;20200;-69
2022/01/16 01:25:05;;;;;;;53.58;26.40;;;4.70;99.90;;;;;;5138906;27;20256;-70
2022/01/16 01:27:33;;;;;;;55.22;26.23;;;4.60;99.90;;;;;;5144943;27;20204;-70
2022/01/16 01:30:04;;;;;;;70.13;31.30;;;4.50;99.90;;;;;;5141894;27;20226;-69
2022/01/16 01:32:32;;;;;;;49.95;29.05;;;4.50;99.90;;;;;;5143977;27;20236;-70
2022/01/16 01:35:01;;;;;;;48.88;25.98;;;4.60;99.90;;;;;;5140252;27;20241;-70
2022/01/16 01:37:28;;;;;;;62.00;27.98;;;4.60;99.90;;;;;;5142484;27;20419;-70
2022/01/16 01:39:55;;;;;;;47.60;26.25;;;4.60;99.90;;;;;;5141011;27;20451;-70
2022/01/16 01:42:30;;;;;;;55.17;28.30;;;4.50;99.90;;;;;;5137315;28;20211;-70
2022/01/16 01:53:16;;;;;;;81.28;32.30;;;4.40;99.90;;;;;;5141578;28;20256;-71
2022/01/16 01:55:44;;;;;;;72.93;31.83;;;4.40;99.90;;;;;;5130273;27;20264;-71
2022/01/16 01:58:14;;;;;;;76.18;32.95;;;4.40;99.90;;;;;;5142430;27;20195;-71
2022/01/16 02:00:42;;;;;;;67.60;30.50;;;4.40;99.90;;;;;;5139263;28;20209;-71
2022/01/16 02:03:15;;;;;;;88.88;33.15;;;4.30;99.90;;;;;;5140345;28;20238;-71
2022/01/16 02:05:44;;;;;;;56.63;27.00;;;4.30;99.90;;;;;;5139423;28;20395;-71
2022/01/16 02:08:11;;;;;;;66.18;28.30;;;4.50;99.90;;;;;;5141377;28;20207;-71
2022/01/16 02:10:39;;;;;;;67.07;28.02;;;4.40;99.90;;;;;;5135246;27;20227;-70
2022/01/16 02:13:16;;;;;;;62.70;31.15;;;4.40;99.90;;;;;;5141120;27;20263;-72
2022/01/16 02:35:03;;;;;;;57.40;26.67;;;4.40;99.90;;;;;;5129978;28;20182;-71
2022/01/16 02:37:30;;;;;;;59.38;27.80;;;4.40;99.90;;;;;;5143623;28;20196;-71
2022/01/16 02:40:05;;;;;;;49.28;24.10;;;4.40;99.90;;;;;;5133482;28;20223;-70
2022/01/16 02:42:37;;;;;;;58.55;26.63;;;4.50;99.90;;;;;;5144036;27;20226;-70
2022/01/16 02:45:06;;;;;;;64.00;27.40;;;4.50;99.90;;;;;;5139120;28;20189;-70
2022/01/16 02:47:34;;;;;;;52.00;28.00;;;4.50;99.90;;;;;;5137317;27;20185;-71
2022/01/16 02:50:01;;;;;;;55.75;25.65;;;4.60;99.90;;;;;;5138478;27;20229;-70
2022/01/16 02:52:28;;;;;;;67.25;30.13;;;4.50;99.90;;;;;;5138172;27;20255;-70
2022/01/16 02:54:57;;;;;;;51.42;25.67;;;4.50;99.90;;;;;;5141880;27;20274;-71
2022/01/16 02:57:25;;;;;;;51.95;27.65;;;4.50;99.90;;;;;;5144431;27;20203;-71
2022/01/16 02:59:54;;;;;;;46.35;24.65;;;4.50;99.90;;;;;;5140309;27;20252;-71
2022/01/16 03:02:24;;;;;;;52.40;26.02;;;4.50;99.90;;;;;;5140266;27;20228;-71
2022/01/16 03:04:51;;;;;;;54.17;24.55;;;4.50;99.90;;;;;;5141373;27;20300;-71
2022/01/16 03:07:18;;;;;;;36.53;21.45;;;4.50;99.90;;;;;;5136963;27;20197;-71
2022/01/16 03:10:02;;;;;;;41.20;18.77;;;4.50;99.90;;;;;;5144227;27;20228;-70
2022/01/16 03:12:30;;;;;;;42.50;24.23;;;4.50;99.90;;;;;;5141684;27;20349;-69
2022/01/16 03:14:57;;;;;;;40.10;23.60;;;4.50;99.90;;;;;;5145499;27;20192;-69
2022/01/16 03:17:36;;;;;;;37.47;20.30;;;4.50;99.90;;;;;;5146650;27;20177;-69
2022/01/16 03:22:48;;;;;;;38.53;21.45;;;4.50;99.90;;;;;;5130724;27;20238;-69
2022/01/16 03:25:16;;;;;;;47.85;22.92;;;4.50;99.90;;;;;;5148232;27;20185;-69
2022/01/16 03:27:44;;;;;;;45.92;24.70;;;4.50;99.90;;;;;;5136415;27;20177;-68
2022/01/16 03:30:12;;;;;;;40.10;21.23;;;4.60;99.90;;;;;;5149189;27;20185;-71
2022/01/16 03:32:39;;;;;;;47.42;24.67;;;4.60;99.90;;;;;;5147713;27;20254;-68
2022/01/16 03:35:08;;;;;;;43.85;23.92;;;4.50;99.90;;;;;;5150624;27;20217;-69
2022/01/16 03:37:35;;;;;;;45.75;23.45;;;4.60;99.90;;;;;;5155441;27;20299;-69
2022/01/16 03:40:07;;;;;;;42.53;22.77;;;4.60;99.90;;;;;;5136080;27;20190;-69
2022/01/16 03:42:36;;;;;;;41.13;23.70;;;4.60;99.90;;;;;;5142257;27;20198;-69
2022/01/16 03:45:06;;;;;;;42.08;23.27;;;4.60;99.90;;;;;;5146775;27;20192;-69
2022/01/16 03:47:33;;;;;;;47.85;24.80;;;4.60;99.90;;;;;;5134944;27;20232;-69
2022/01/16 03:50:00;;;;;;;43.95;23.58;;;4.60;99.90;;;;;;5128969;28;20371;-69
2022/01/16 03:52:27;;;;;;;47.20;23.77;;;4.60;99.90;;;;;;5141851;27;20251;-69
2022/01/16 03:54:54;;;;;;;39.20;22.95;;;4.70;99.90;;;;;;5134411;27;20245;-69
2022/01/16 03:57:21;;;;;;;49.80;23.13;;;4.70;99.90;;;;;;5129360;28;20338;-69
2022/01/16 03:59:48;;;;;;;41.47;23.63;;;4.60;99.90;;;;;;5128702;27;20209;-69
2022/01/16 04:02:17;;;;;;;48.83;25.00;;;4.60;99.90;;;;;;5138136;27;20463;-69
2022/01/16 04:04:44;;;;;;;47.30;24.98;;;4.60;99.90;;;;;;5134659;27;20278;-69
2022/01/16 04:07:16;;;;;;;44.00;25.88;;;4.60;99.90;;;;;;5143587;27;20249;-69
2022/01/16 04:09:43;;;;;;;44.67;24.23;;;4.70;99.90;;;;;;5140888;27;20193;-69
2022/01/16 04:12:10;;;;;;;53.35;26.10;;;4.70;99.90;;;;;;5140032;27;20232;-68
2022/01/16 04:17:24;;;;;;;39.92;23.33;;;4.70;99.90;;;;;;5143824;27;20234;-69
2022/01/16 04:19:52;;;;;;;48.08;26.33;;;4.70;99.90;;;;;;5142107;27;20261;-69
2022/01/16 04:22:20;;;;;;;41.53;25.10;;;4.80;99.90;;;;;;5137805;27;20239;-69
2022/01/16 04:24:48;;;;;;;41.83;25.35;;;4.60;99.90;;;;;;5144526;27;20298;-69
2022/01/16 04:27:15;;;;;;;41.45;21.70;;;4.50;99.90;;;;;;5133068;27;20189;-69
2022/01/16 04:29:43;;;;;;;35.67;22.85;;;4.40;99.90;;;;;;5133577;27;20216;-69
2022/01/16 04:32:10;;;;;;;52.75;25.48;;;4.40;99.90;;;;;;5144103;27;20266;-69
2022/01/16 04:34:39;;;;;;;45.75;25.63;;;4.40;99.90;;;;;;5140430;27;20263;-69
2022/01/16 04:37:06;;;;;;;44.03;23.95;;;4.40;99.90;;;;;;5141538;27;20244;-69
2022/01/16 04:39:34;;;;;;;45.08;24.95;;;4.40;99.90;;;;;;5144491;27;20399;-69
2022/01/16 04:44:46;;;;;;;43.83;24.90;;;4.30;99.90;;;;;;5139009;27;20195;-69
2022/01/16 04:47:14;;;;;;;42.35;23.65;;;4.30;99.90;;;;;;5144070;27;20208;-69
2022/01/16 04:49:42;;;;;;;45.83;24.80;;;4.20;99.90;;;;;;5140314;27;20246;-69
2022/01/16 04:52:09;;;;;;;43.67;24.40;;;4.30;99.90;;;;;;5141801;27;20291;-68
2022/01/16 04:54:36;;;;;;;45.30;25.05;;;4.30;99.90;;;;;;5141300;27;20282;-69
2022/01/16 04:57:03;;;;;;;47.50;25.63;;;4.20;99.90;;;;;;5143173;27;20256;-68
2022/01/16 04:59:30;;;;;;;48.35;27.10;;;4.20;99.90;;;;;;5139205;27;20404;-69
2022/01/16 05:01:57;;;;;;;43.10;25.65;;;4.10;99.90;;;;;;5140284;27;20201;-69
2022/01/16 05:04:24;;;;;;;54.50;27.92;;;4.00;99.90;;;;;;5134592;27;20193;-69
2022/01/16 05:06:52;;;;;;;55.95;28.23;;;4.10;99.90;;;;;;5139130;27;20212;-69
2022/01/16 05:09:19;;;;;;;56.85;28.88;;;4.10;99.90;;;;;;5141049;27;20181;-69
2022/01/16 05:11:51;;;;;;;58.25;29.75;;;3.90;99.90;;;;;;5143384;27;20280;-69
2022/01/16 05:17:03;;;;;;;63.67;31.60;;;3.90;99.90;;;;;;5134854;27;20191;-69
2022/01/16 05:19:29;;;;;;;70.57;34.78;;;3.90;99.90;;;;;;5142292;27;20188;-70
2022/01/16 05:21:58;;;;;;;61.13;30.33;;;3.90;99.90;;;;;;5141127;27;20276;-69
2022/01/16 05:24:31;;;;;;;75.00;35.92;;;3.90;99.90;;;;;;5143858;27;20277;-69
2022/01/16 05:26:58;;;;;;;79.72;35.22;;;3.80;99.90;;;;;;5139771;27;20184;-69
2022/01/16 05:29:24;;;;;;;67.25;33.28;;;3.80;99.90;;;;;;5141340;27;20225;-69
2022/01/16 05:31:51;;;;;;;76.40;36.90;;;3.90;99.90;;;;;;5144596;27;20255;-69
2022/01/16 05:34:19;;;;;;;84.07;36.67;;;3.80;99.90;;;;;;5139992;27;20230;-69
2022/01/16 05:36:46;;;;;;;77.15;36.97;;;3.70;99.90;;;;;;5143183;27;20191;-70
2022/01/16 05:39:14;;;;;;;73.72;35.08;;;3.70;99.90;;;;;;5136897;27;20256;-70
2022/01/16 05:41:41;;;;;;;72.03;33.17;;;3.80;99.90;;;;;;5140411;27;20247;-70
2022/01/16 05:44:08;;;;;;;75.60;38.50;;;3.80;99.90;;;;;;5142784;27;20255;-70
2022/01/16 05:46:35;;;;;;;73.68;35.70;;;3.80;99.90;;;;;;5138856;28;20315;-70
2022/01/16 05:49:02;;;;;;;83.85;36.58;;;3.80;99.90;;;;;;5138017;27;20252;-70
2022/01/16 05:51:29;;;;;;;71.10;36.55;;;3.80;99.90;;;;;;5144037;27;20216;-70
2022/01/16 05:53:56;;;;;;;83.25;39.28;;;3.80;99.90;;;;;;5137681;28;20375;-70
2022/01/16 05:56:25;;;;;;;79.32;39.08;;;3.80;99.90;;;;;;5139927;28;20187;-70
2022/01/16 05:58:52;;;;;;;82.72;37.35;;;3.90;99.90;;;;;;5144704;28;20177;-70
2022/01/16 06:01:20;;;;;;;82.47;36.78;;;3.90;99.90;;;;;;5138468;27;20215;-70
2022/01/16 06:03:47;;;;;;;78.75;34.80;;;3.80;99.90;;;;;;5142892;28;20176;-69
2022/01/16 06:06:13;;;;;;;86.75;38.13;;;3.90;99.90;;;;;;5144728;28;20203;-70
2022/01/16 06:08:41;;;;;;;79.43;38.80;;;4.00;99.90;;;;;;5140697;28;20328;-70
2022/01/16 06:11:07;;;;;;;83.25;35.03;;;4.00;99.90;;;;;;5141992;27;20202;-70
2022/01/16 06:13:36;;;;;;;81.97;37.55;;;4.00;99.90;;;;;;5145744;27;20193;-69
2022/01/16 06:16:03;;;;;;;77.55;34.92;;;3.90;99.90;;;;;;5134192;28;20254;-70
2022/01/16 06:18:30;;;;;;;89.55;41.88;;;3.80;99.90;;;;;;5139809;27;20197;-69
2022/01/16 06:20:57;;;;;;;96.70;41.05;;;3.80;99.90;;;;;;5144607;27;20235;-70
2022/01/16 06:23:24;;;;;;;83.15;36.35;;;3.80;99.90;;;;;;5140921;27;20396;-70
2022/01/16 06:25:54;;;;;;;85.88;39.95;;;3.80;99.90;;;;;;5143472;27;20178;-70
2022/01/16 06:28:22;;;;;;;84.47;37.83;;;3.90;99.90;;;;;;5146563;27;20421;-70
2022/01/16 06:30:50;;;;;;;91.47;41.17;;;3.80;99.90;;;;;;5138971;27;20432;-69
2022/01/16 06:33:17;;;;;;;93.00;41.70;;;3.70;99.90;;;;;;5144879;27;20220;-70
2022/01/16 06:35:44;;;;;;;95.38;40.50;;;3.70;99.90;;;;;;5142088;27;20280;-70
2022/01/16 06:38:11;;;;;;;88.10;41.58;;;3.80;99.90;;;;;;5144863;27;20412;-70
2022/01/16 06:40:38;;;;;;;97.38;40.95;;;3.80;99.90;;;;;;5138906;27;20361;-70
2022/01/16 06:43:05;;;;;;;89.35;40.53;;;3.80;99.90;;;;;;5145037;27;20201;-69
2022/01/16 06:45:32;;;;;;;101.10;41.45;;;3.90;99.90;;;;;;5143956;27;20264;-70
2022/01/16 06:48:00;;;;;;;104.22;40.67;;;3.90;99.90;;;;;;5143398;27;20340;-70
2022/01/16 06:50:27;;;;;;;85.72;41.17;;;3.90;99.90;;;;;;5141147;27;20206;-70
2022/01/16 06:52:54;;;;;;;99.28;44.05;;;4.00;99.90;;;;;;5150260;27;20224;-70
2022/01/16 06:55:21;;;;;;;101.72;44.47;;;4.00;99.90;;;;;;5140988;27;20253;-70
2022/01/16 06:57:48;;;;;;;90.60;42.70;;;4.00;99.90;;;;;;5141016;27;20185;-70
2022/01/16 07:00:15;;;;;;;99.38;43.22;;;4.00;99.90;;;;;;5140043;27;20253;-70
2022/01/16 07:02:42;;;;;;;103.90;41.50;;;4.00;99.90;;;;;;5142298;27;20259;-70
2022/01/16 07:05:11;;;;;;;95.03;41.13;;;4.10;99.90;;;;;;5146673;27;20244;-70
2022/01/16 07:07:38;;;;;;;105.35;42.10;;;4.20;99.90;;;;;;5146089;27;20231;-70
2022/01/16 07:10:06;;;;;;;103.10;46.05;;;4.10;99.90;;;;;;5141120;27;20272;-69
2022/01/16 07:12:33;;;;;;;114.80;47.00;;;4.00;99.90;;;;;;5145496;27;20255;-70
2022/01/16 07:15:00;;;;;;;95.93;43.25;;;4.00;99.90;;;;;;5147311;27;20181;-70
2022/01/16 07:17:27;;;;;;;116.15;43.95;;;4.00;99.90;;;;;;5142731;27;20212;-70
2022/01/16 07:19:54;;;;;;;110.30;45.92;;;4.00;99.90;;;;;;5146790;27;20259;-69
2022/01/16 07:22:23;;;;;;;106.05;46.28;;;4.00;99.90;;;;;;5145718;27;20268;-69
2022/01/16 07:24:51;;;;;;;116.03;44.10;;;3.90;99.90;;;;;;5147638;27;20203;-69
2022/01/16 07:27:18;;;;;;;104.07;42.50;;;3.90;99.90;;;;;;5142806;27;20196;-69
2022/01/16 07:29:46;;;;;;;108.43;41.55;;;3.90;99.90;;;;;;5145751;27;20424;-69
2022/01/16 07:32:13;;;;;;;120.13;42.17;;;3.90;99.90;;;;;;5140839;27;20256;-70
2022/01/16 07:34:40;;;;;;;119.07;48.92;;;4.00;99.90;;;;;;5144106;27;20184;-70
2022/01/16 07:37:07;;;;;;;114.20;46.25;;;4.10;99.90;;;;;;5147029;27;20202;-70
2022/01/16 07:39:37;;;;;;;100.15;45.72;;;4.10;99.90;;;;;;5138690;27;20371;-71
2022/01/16 07:42:05;;;;;;;115.10;43.83;;;4.10;99.90;;;;;;5143747;27;20201;-70
2022/01/16 07:44:32;;;;;;;98.47;40.85;;;4.10;99.90;;;;;;5147978;27;20272;-70
2022/01/16 07:46:59;;;;;;;104.70;41.30;;;4.00;99.90;;;;;;5141194;27;20193;-69
2022/01/16 07:49:26;;;;;;;114.65;45.80;;;4.00;99.90;;;;;;5145206;27;20239;-70
2022/01/16 07:51:52;;;;;;;128.63;48.83;;;4.00;99.90;;;;;;5131642;27;20213;-70
2022/01/16 07:54:20;;;;;;;104.50;39.83;;;4.10;99.90;;;;;;5143673;27;20219;-69
2022/01/16 07:56:49;;;;;;;129.70;47.63;;;4.00;99.90;;;;;;5134790;27;20185;-69
2022/01/16 07:59:16;;;;;;;110.82;40.15;;;4.10;99.90;;;;;;5146397;27;20196;-70
2022/01/16 08:01:43;;;;;;;104.82;44.40;;;4.10;99.90;;;;;;5140169;27;20451;-69
2022/01/16 08:04:10;;;;;;;106.47;40.83;;;4.20;99.90;;;;;;5144527;27;20375;-70
2022/01/16 08:06:37;;;;;;;124.80;46.33;;;4.20;99.90;;;;;;5140738;27;20317;-69
2022/01/16 08:09:04;;;;;;;93.93;43.65;;;4.20;99.90;;;;;;5146308;27;20181;-70
2022/01/16 08:11:31;;;;;;;92.20;38.63;;;4.20;99.90;;;;;;5141552;27;20241;-70
2022/01/16 08:14:00;;;;;;;95.63;39.13;;;4.30;99.90;;;;;;5141529;27;20310;-70
2022/01/16 08:16:27;;;;;;;99.05;41.67;;;4.30;99.90;;;;;;5140081;27;20200;-69
2022/01/16 08:18:54;;;;;;;116.13;41.60;;;4.30;99.90;;;;;;5135844;27;20188;-70
2022/01/16 08:21:21;;;;;;;100.30;42.33;;;4.20;99.90;;;;;;5138505;27;20234;-69
2022/01/16 08:23:54;;;;;;;110.47;43.03;;;4.30;99.90;;;;;;5119882;28;20216;-70
2022/01/16 08:26:20;;;;;;;106.70;42.85;;;4.30;99.90;;;;;;5119825;28;20178;-69
2022/01/16 08:28:47;;;;;;;126.05;44.83;;;4.30;99.90;;;;;;5121565;28;20185;-69
2022/01/16 08:31:17;;;;;;;95.07;41.67;;;4.30;99.90;;;;;;5136059;27;20215;-71
2022/01/16 08:33:43;;;;;;;121.30;43.05;;;4.30;99.90;;;;;;5129408;27;20208;-70
2022/01/16 08:36:10;;;;;;;111.85;42.50;;;4.30;99.90;;;;;;5141968;27;20244;-71
2022/01/16 08:38:37;;;;;;;110.43;45.28;;;4.30;99.90;;;;;;5143581;27;20181;-70
2022/01/16 08:41:04;;;;;;;117.57;45.85;;;4.30;99.90;;;;;;5138851;27;20205;-71
2022/01/16 08:43:31;;;;;;;103.63;44.70;;;4.30;99.90;;;;;;5140942;27;20243;-69
2022/01/16 08:45:58;;;;;;;110.60;45.55;;;4.40;99.90;;;;;;5139339;27;20227;-70
2022/01/16 08:48:28;;;;;;;97.20;43.35;;;4.40;99.90;;;;;;5129922;27;20213;-71
2022/01/16 08:50:55;;;;;;;109.82;43.50;;;4.40;99.90;;;;;;5127087;28;20440;-71
2022/01/16 08:53:22;;;;;;;105.57;43.28;;;4.50;99.90;;;;;;5127612;27;20373;-73
2022/01/16 08:55:49;;;;;;;111.28;42.30;;;4.60;99.90;;;;;;5131305;27;20235;-71
2022/01/16 08:58:16;;;;;;;99.93;43.63;;;4.60;99.90;;;;;;5118908;27;20270;-71
2022/01/16 09:00:45;;;;;;;94.93;41.65;;;4.70;99.90;;;;;;5121341;28;20265;-71
2022/01/16 09:03:12;;;;;;;114.45;41.13;;;4.60;99.90;;;;;;5113455;27;20224;-70
2022/01/16 09:05:40;;;;;;;96.68;45.25;;;4.60;99.90;;;;;;5112133;28;20178;-69
2022/01/16 09:08:07;;;;;;;96.13;38.60;;;4.60;99.90;;;;;;5131354;27;20197;-70
2022/01/16 09:10:34;;;;;;;108.50;43.47;;;4.40;99.90;;;;;;5133779;27;20217;-69
2022/01/16 09:13:02;;;;;;;108.57;45.22;;;4.40;99.90;;;;;;5117566;28;20317;-69
2022/01/16 09:15:29;;;;;;;111.57;45.45;;;4.50;99.90;;;;;;5129494;27;20211;-67
2022/01/16 09:17:57;;;;;;;104.07;41.10;;;4.50;99.90;;;;;;5142290;27;20208;-68
2022/01/16 09:20:25;;;;;;;115.63;44.88;;;4.50;99.90;;;;;;5142033;27;20381;-68
2022/01/16 09:22:53;;;;;;;99.18;41.03;;;4.50;99.90;;;;;;5139749;27;20177;-68
2022/01/16 09:25:22;;;;;;;115.95;42.25;;;4.50;99.90;;;;;;5140112;27;20178;-69
2022/01/16 09:27:49;;;;;;;94.03;42.42;;;4.50;99.90;;;;;;5146490;27;20400;-68
2022/01/16 09:30:16;;;;;;;119.57;40.25;;;4.50;99.90;;;;;;5136431;27;20230;-69
2022/01/16 09:32:44;;;;;;;105.50;44.58;;;4.50;99.90;;;;;;5138248;27;20251;-69
2022/01/16 09:35:12;;;;;;;97.07;40.60;;;4.40;99.90;;;;;;5143160;27;20212;-69
2022/01/16 09:37:40;;;;;;;119.68;39.00;;;4.40;99.90;;;;;;5133459;27;20241;-69
2022/01/16 09:40:10;;;;;;;99.38;40.88;;;4.50;99.90;;;;;;5141177;27;20264;-69
2022/01/16 09:42:37;;;;;;;97.07;41.10;;;4.50;99.90;;;;;;5139909;27;20215;-69
2022/01/16 09:45:06;;;;;;;111.35;41.92;;;4.50;99.90;;;;;;5132925;27;20264;-68
2022/01/16 09:47:33;;;;;;;91.30;38.63;;;4.50;99.90;;;;;;5126979;28;20224;-68
2022/01/16 09:50:04;;;;;;;96.65;38.10;;;4.40;99.90;;;;;;5121984;28;20209;-68
2022/01/16 09:52:32;;;;;;;93.95;40.08;;;4.50;99.90;;;;;;5118229;27;20323;-69
2022/01/16 09:54:59;;;;;;;88.00;38.05;;;4.50;99.90;;;;;;5119787;28;20197;-68
2022/01/16 09:57:27;;;;;;;106.68;44.72;;;4.60;99.90;;;;;;5124821;28;20208;-69
2022/01/16 09:59:54;;;;;;;101.05;38.85;;;4.60;99.90;;;;;;5137076;28;20242;-69
2022/01/16 10:02:22;;;;;;;94.80;37.10;;;4.60;99.90;;;;;;5139602;27;20214;-68
2022/01/16 10:04:49;;;;;;;106.90;44.83;;;4.60;99.90;;;;;;5133521;28;20240;-68
2022/01/16 10:07:18;;;;;;;90.80;38.35;;;4.60;99.90;;;;;;5133671;28;20213;-69
2022/01/16 10:10:04;;;;;;;101.65;41.58;;;4.60;99.90;;;;;;5135592;28;20185;-69
2022/01/16 10:12:33;;;;;;;109.63;42.67;;;4.60;99.90;;;;;;5150611;27;20205;-69
2022/01/16 10:15:17;;;;;;;96.50;37.22;;;4.60;99.90;;;;;;5140668;28;20482;-69
2022/01/16 10:17:45;;;;;;;102.80;42.53;;;4.60;99.90;;;;;;5111844;28;20443;-68
2022/01/16 10:20:14;;;;;;;98.97;41.33;;;4.60;99.90;;;;;;5105808;28;20179;-70
2022/01/16 10:22:43;;;;;;;95.15;40.03;;;4.60;99.90;;;;;;5108706;28;20209;-68
2022/01/16 10:25:11;;;;;;;117.45;45.35;;;4.60;99.90;;;;;;5116422;28;20224;-67
2022/01/16 10:27:42;;;;;;;109.30;45.67;;;4.60;99.90;;;;;;5105781;28;20231;-67
2022/01/16 10:30:12;;;;;;;107.93;42.42;;;4.60;99.90;;;;;;5120490;28;20186;-68
2022/01/16 10:32:41;;;;;;;94.47;42.00;;;4.60;99.90;;;;;;5115351;28;20202;-67
2022/01/16 10:35:10;;;;;;;105.85;43.08;;;4.70;99.90;;;;;;5118072;28;20178;-68
2022/01/16 10:37:38;;;;;;;96.30;43.65;;;4.70;99.90;;;;;;5115313;28;20248;-68
2022/01/16 10:40:09;;;;;;;107.90;46.33;;;4.90;99.90;;;;;;5122295;28;20182;-71
2022/01/16 10:42:36;;;;;;;112.72;44.20;;;4.80;99.90;;;;;;5133511;27;20250;-68
2022/01/16 10:45:09;;;;;;;84.20;38.55;;;4.90;99.90;;;;;;5138118;28;20204;-69
2022/01/16 10:47:39;;;;;;;102.35;41.47;;;4.90;99.90;;;;;;5137104;27;20190;-70
2022/01/16 10:50:13;;;;;;;97.63;40.15;;;5.00;99.90;;;;;;5139282;28;20238;-72
2022/01/16 10:52:58;;;;;;;106.82;42.92;;;4.90;99.90;;;;;;5137850;27;20212;-70
2022/01/16 10:55:33;;;;;;;102.43;40.75;;;5.00;99.90;;;;;;5136195;28;20182;-70
2022/01/16 10:58:02;;;;;;;103.10;41.95;;;5.10;99.90;;;;;;5138627;28;20185;-70
2022/01/16 11:00:31;;;;;;;101.15;41.15;;;5.10;99.90;;;;;;5120637;27;20181;-71
2022/01/16 11:03:00;;;;;;;85.72;40.53;;;5.10;99.90;;;;;;5141344;28;20194;-70
2022/01/16 11:05:28;;;;;;;85.22;42.08;;;5.10;99.90;;;;;;5138216;28;20417;-70
2022/01/16 11:07:58;;;;;;;96.47;47.08;;;5.10;99.90;;;;;;5143981;27;20181;-70
2022/01/16 11:10:28;;;;;;;99.35;44.38;;;5.10;99.90;;;;;;5145024;27;20231;-69
2022/01/16 11:12:57;;;;;;;101.90;44.03;;;5.20;99.90;;;;;;5143963;27;20198;-71
2022/01/16 11:15:25;;;;;;;90.60;43.05;;;5.20;99.90;;;;;;5139728;27;20392;-69
2022/01/16 11:17:54;;;;;;;98.95;41.45;;;5.30;99.90;;;;;;5141496;27;20260;-69
2022/01/16 11:20:32;;;;;;;100.53;42.90;;;5.20;99.90;;;;;;5144825;27;20205;-68
2022/01/16 11:23:04;;;;;;;102.22;43.05;;;5.30;99.90;;;;;;5137699;27;20185;-70
2022/01/16 11:25:33;;;;;;;89.20;39.53;;;5.30;99.90;;;;;;5144947;27;20277;-70
2022/01/16 11:28:10;;;;;;;91.70;43.83;;;5.40;99.90;;;;;;5142014;27;20193;-69
2022/01/16 11:30:40;;;;;;;99.03;45.28;;;5.40;99.90;;;;;;5141586;27;20198;-68
2022/01/16 11:33:08;;;;;;;96.50;43.63;;;5.40;99.90;;;;;;5146213;27;20197;-69
2022/01/16 11:35:41;;;;;;;114.22;45.42;;;5.50;99.90;;;;;;5141789;27;20179;-69
2022/01/16 11:38:09;;;;;;;111.03;46.92;;;5.60;99.90;;;;;;5144105;27;20258;-69
2022/01/16 11:40:45;;;;;;;90.07;45.85;;;5.60;99.90;;;;;;5136786;27;20439;-69
2022/01/16 11:43:41;;;;;;;96.97;41.65;;;5.60;99.90;;;;;;5143150;27;20232;-70
2022/01/16 11:46:12;;;;;;;97.97;41.92;;;5.60;99.90;;;;;;5105413;27;20442;-69
2022/01/16 11:48:53;;;;;;;97.18;42.20;;;5.70;99.90;;;;;;5139226;27;20178;-70
2022/01/16 11:51:59;;;;;;;92.25;42.10;;;5.80;99.90;;;;;;5143082;27;20232;-71
2022/01/16 11:54:34;;;;;;;77.82;38.63;;;5.90;99.90;;;;;;5144523;27;20198;-69
2022/01/16 11:57:21;;;;;;;97.60;40.75;;;6.00;99.90;;;;;;5144156;27;20232;-70
2022/01/16 11:59:49;;;;;;;82.38;38.22;;;6.10;99.90;;;;;;5142614;27;20221;-70
2022/01/16 12:02:37;;;;;;;79.40;39.47;;;6.10;99.90;;;;;;5144264;27;20298;-70
2022/01/16 12:05:07;;;;;;;87.57;41.67;;;6.20;99.90;;;;;;5144294;27;20209;-69
2022/01/16 12:07:58;;;;;;;76.55;39.72;;;6.20;99.90;;;;;;5138785;27;20194;-70
2022/01/16 12:10:57;;;;;;;86.05;38.67;;;6.30;99.90;;;;;;5142149;27;20263;-69
2022/01/16 12:13:49;;;;;;;74.38;38.33;;;6.30;99.90;;;;;;5131272;27;20211;-69
2022/01/16 12:16:45;;;;;;;81.78;38.47;;;6.40;99.90;;;;;;5128840;27;20244;-69
2022/01/16 12:19:45;;;;;;;88.30;40.50;;;6.40;99.90;;;;;;5140919;27;20180;-69
2022/01/16 12:22:29;;;;;;;83.75;40.50;;;6.40;99.90;;;;;;5131308;27;20215;-69
2022/01/16 12:25:07;;;;;;;76.75;40.33;;;6.50;99.90;;;;;;5128092;27;20256;-69
2022/01/16 12:27:45;;;;;;;75.35;36.53;;;6.40;99.90;;;;;;5143841;27;20179;-69
2022/01/16 12:30:24;;;;;;;86.13;39.90;;;6.50;99.90;;;;;;5138910;27;20187;-69
2022/01/16 12:32:57;;;;;;;84.95;38.92;;;6.60;99.90;;;;;;5134833;27;20532;-69
2022/01/16 12:36:10;;;;;;;77.80;36.47;;;6.70;99.90;;;;;;5137487;27;20211;-69
2022/01/16 12:39:11;;;;;;;75.40;37.50;;;6.70;99.90;;;;;;5134615;27;20192;-70
2022/01/16 12:41:42;;;;;;;69.82;34.88;;;6.70;99.90;;;;;;5132511;27;20228;-69
2022/01/16 12:44:11;;;;;;;74.22;39.80;;;6.70;99.90;;;;;;5141681;27;20452;-70
2022/01/16 12:46:41;;;;;;;67.75;38.30;;;6.80;99.90;;;;;;5141878;27;20419;-69
2022/01/16 12:49:11;;;;;;;75.53;39.20;;;6.80;99.90;;;;;;5144850;27;20192;-70
2022/01/16 12:51:40;;;;;;;76.32;40.10;;;6.90;99.90;;;;;;5139100;27;20204;-70
2022/01/16 12:54:11;;;;;;;68.72;38.30;;;7.00;99.90;;;;;;5133122;27;20431;-69
2022/01/16 12:56:42;;;;;;;78.45;38.25;;;7.00;99.90;;;;;;5139213;27;20210;-70
2022/01/16 12:59:15;;;;;;;91.15;42.85;;;7.00;99.90;;;;;;5144587;27;20367;-70
2022/01/16 13:01:50;;;;;;;79.32;40.17;;;7.10;99.90;;;;;;5138684;27;20246;-70
2022/01/16 13:04:23;;;;;;;74.65;37.78;;;7.00;99.90;;;;;;5145390;27;20185;-70
2022/01/16 13:06:51;;;;;;;68.78;36.47;;;7.00;99.90;;;;;;5140580;27;20187;-70
2022/01/16 13:09:20;;;;;;;70.20;37.40;;;7.00;99.90;;;;;;5139823;27;20194;-71
2022/01/16 13:11:48;;;;;;;86.10;40.70;;;7.00;99.90;;;;;;5129625;27;20215;-69
2022/01/16 13:14:17;;;;;;;69.97;38.17;;;6.90;99.90;;;;;;5141467;27;20339;-71
2022/01/16 13:16:48;;;;;;;75.20;41.55;;;6.90;99.90;;;;;;5131597;27;20363;-70
2022/01/16 13:19:18;;;;;;;67.88;38.47;;;6.90;99.90;;;;;;5138192;27;20212;-70
2022/01/16 13:24:44;;;;;;;64.57;39.50;;;7.00;99.90;;;;;;5142924;27;20180;-72
2022/01/16 13:27:14;;;;;;;77.18;37.30;;;6.90;99.90;;;;;;5138381;27;20414;-70
2022/01/16 13:29:43;;;;;;;63.20;35.45;;;7.00;99.90;;;;;;5132637;27;20252;-70
2022/01/16 13:32:12;;;;;;;61.53;36.38;;;7.00;99.90;;;;;;5135245;27;20208;-70